createdAt,value
2019-01-03T00:00:26.016Z,4.70
2019-01-03T00:01:26.077Z,7.50
2019-01-03T00:02:26.088Z,7.10
2019-01-03T00:03:26.117Z,7.90
2019-01-03T00:04:26.159Z,6.50
2019-01-03T00:05:26.194Z,4.40
2019-01-03T00:06:26.213Z,6.20
2019-01-03T00:07:26.258Z,5.30
2019-01-03T00:08:26.621Z,5.50
2019-01-03T00:09:26.314Z,6.40
2019-01-03T00:10:27.070Z,5.50
2019-01-03T00:11:26.380Z,8.20
2019-01-03T00:12:26.424Z,6.70
2019-01-03T00:13:26.446Z,6.70
2019-01-03T00:14:26.483Z,6.40
2019-01-03T00:15:26.516Z,7.50
2019-01-03T00:16:26.554Z,7.20
2019-01-03T00:17:26.585Z,4.30
2019-01-03T00:18:26.616Z,6.40
2019-01-03T00:19:26.648Z,7.60
2019-01-03T00:20:26.685Z,5.80
2019-01-03T00:21:26.715Z,5.80
2019-01-03T00:22:26.756Z,5.60
2019-01-03T00:23:26.781Z,10.50
2019-01-03T00:24:26.816Z,6.00
2019-01-03T00:25:26.855Z,6.30
2019-01-03T00:26:26.882Z,5.90
2019-01-03T00:27:26.915Z,8.00
2019-01-03T00:28:26.973Z,5.90
2019-01-03T00:29:26.993Z,5.00
2019-01-03T00:30:27.015Z,8.20
2019-01-03T00:31:27.051Z,5.80
2019-01-03T00:32:27.083Z,7.10
2019-01-03T00:33:27.121Z,8.10
2019-01-03T00:34:27.216Z,4.40
2019-01-03T00:35:27.190Z,8.30
2019-01-03T00:36:27.218Z,9.30
2019-01-03T00:37:27.268Z,7.50
2019-01-03T00:38:27.288Z,9.20
2019-01-03T00:39:27.366Z,9.40
2019-01-03T00:40:27.367Z,9.30
2019-01-03T00:41:27.382Z,7.70
2019-01-03T00:42:27.418Z,7.30
2019-01-03T00:43:27.449Z,7.90
2019-01-03T00:44:27.490Z,8.80
2019-01-03T00:45:27.517Z,8.40
2019-01-03T00:46:27.548Z,8.20
2019-01-03T00:47:27.582Z,10.50
2019-01-03T00:48:27.616Z,8.40
2019-01-03T00:49:27.650Z,11.20
2019-01-03T00:50:27.691Z,11.90
2019-01-03T00:51:27.715Z,9.20
2019-01-03T00:52:27.748Z,10.00
2019-01-03T00:53:27.792Z,9.10
2019-01-03T00:54:27.815Z,8.80
2019-01-03T00:55:27.855Z,8.50
2019-01-03T00:56:27.884Z,10.20
2019-01-03T00:57:27.917Z,9.20
2019-01-03T00:58:27.953Z,8.00
2019-01-03T00:59:27.985Z,8.70
2019-01-03T01:00:28.023Z,9.20
2019-01-03T01:01:28.054Z,8.80
2019-01-03T01:02:28.081Z,10.00
2019-01-03T01:03:28.118Z,10.00
2019-01-03T01:04:28.151Z,6.60
2019-01-03T01:05:28.190Z,11.70
2019-01-03T01:06:28.281Z,8.10
2019-01-03T01:07:28.255Z,8.70
2019-01-03T01:08:28.284Z,10.30
2019-01-03T01:09:28.321Z,10.00
2019-01-03T01:10:28.443Z,8.30
2019-01-03T01:11:28.382Z,5.60
2019-01-03T01:12:28.414Z,7.50
2019-01-03T01:13:28.446Z,11.30
2019-01-03T01:14:28.509Z,6.50
2019-01-03T01:15:28.518Z,9.50
2019-01-03T01:16:28.547Z,7.60
2019-01-03T01:17:28.738Z,6.90
2019-01-03T01:18:28.623Z,10.30
2019-01-03T01:19:28.652Z,7.40
2019-01-03T01:20:28.686Z,6.80
2019-01-03T01:21:28.714Z,9.80
2019-01-03T01:22:28.749Z,9.10
2019-01-03T01:23:28.779Z,8.50
2019-01-03T01:24:28.812Z,8.00
2019-01-03T01:25:28.851Z,12.20
2019-01-03T01:26:28.885Z,7.90
2019-01-03T01:27:28.971Z,8.30
2019-01-03T01:28:28.987Z,7.40
2019-01-03T01:29:28.982Z,10.20
2019-01-03T01:30:29.016Z,7.10
2019-01-03T01:31:29.169Z,7.50
2019-01-03T01:32:29.121Z,9.40
2019-01-03T01:33:29.111Z,7.00
2019-01-03T01:34:29.166Z,9.50
2019-01-03T01:35:29.186Z,9.20
2019-01-03T01:36:29.322Z,9.80
2019-01-03T01:37:29.246Z,10.30
2019-01-03T01:38:29.287Z,9.20
2019-01-03T01:39:29.318Z,7.90
2019-01-03T01:40:29.352Z,8.40
2019-01-03T01:41:29.374Z,11.90
2019-01-03T01:42:29.409Z,9.10
2019-01-03T01:43:29.442Z,9.00
2019-01-03T01:44:29.480Z,12.10
2019-01-03T01:45:29.522Z,10.30
2019-01-03T01:46:29.542Z,9.80
2019-01-03T01:47:29.577Z,8.80
2019-01-03T01:48:29.610Z,6.40
2019-01-03T01:49:29.653Z,8.20
2019-01-03T01:50:29.676Z,9.10
2019-01-03T01:51:29.709Z,9.30
2019-01-03T01:52:29.746Z,9.20
2019-01-03T01:53:29.784Z,9.20
2019-01-03T01:54:29.808Z,10.10
2019-01-03T01:55:29.843Z,8.30
2019-01-03T01:56:29.875Z,7.30
2019-01-03T01:57:29.915Z,16.70
2019-01-03T01:58:29.944Z,10.00
2019-01-03T01:59:29.982Z,12.10
2019-01-03T02:00:30.006Z,12.90
2019-01-03T02:01:30.042Z,17.50
2019-01-03T02:02:30.072Z,12.00
2019-01-03T02:03:30.107Z,10.60
2019-01-03T02:04:30.143Z,9.30
2019-01-03T02:05:30.173Z,12.70
2019-01-03T02:06:30.205Z,10.10
2019-01-03T02:07:30.250Z,9.70
2019-01-03T02:08:30.275Z,8.50
2019-01-03T02:09:30.306Z,11.10
2019-01-03T02:10:30.339Z,9.50
2019-01-03T02:11:30.373Z,10.30
2019-01-03T02:12:30.406Z,10.50
2019-01-03T02:13:30.440Z,11.70
2019-01-03T02:14:30.472Z,13.50
2019-01-03T02:15:30.520Z,12.40
2019-01-03T02:16:30.538Z,13.60
2019-01-03T02:17:30.572Z,13.40
2019-01-03T02:18:30.606Z,13.40
2019-01-03T02:19:30.643Z,11.20
2019-01-03T02:20:30.672Z,9.00
2019-01-03T02:21:30.703Z,9.40
2019-01-03T02:22:30.739Z,10.60
2019-01-03T02:23:30.770Z,10.10
2019-01-03T02:24:30.813Z,13.00
2019-01-03T02:25:30.841Z,12.60
2019-01-03T02:26:30.871Z,12.10
2019-01-03T02:27:30.904Z,12.70
2019-01-03T02:28:30.938Z,14.80
2019-01-03T02:29:30.967Z,12.40
2019-01-03T02:30:31.002Z,10.90
2019-01-03T02:31:31.039Z,7.70
2019-01-03T02:32:31.075Z,10.20
2019-01-03T02:33:31.108Z,11.30
2019-01-03T02:34:31.140Z,9.60
2019-01-03T02:35:31.168Z,11.10
2019-01-03T02:36:31.206Z,13.20
2019-01-03T02:37:31.233Z,10.20
2019-01-03T02:38:31.270Z,7.30
2019-01-03T02:39:31.299Z,10.20
2019-01-03T02:40:31.332Z,11.00
2019-01-03T02:41:31.368Z,10.30
2019-01-03T02:42:31.404Z,8.70
2019-01-03T02:43:31.433Z,9.20
2019-01-03T02:44:31.467Z,9.30
2019-01-03T02:45:31.499Z,11.20
2019-01-03T02:46:31.686Z,10.30
2019-01-03T02:47:31.565Z,9.80
2019-01-03T02:48:31.598Z,9.70
2019-01-03T02:49:31.641Z,7.60
2019-01-03T02:50:31.672Z,11.20
2019-01-03T02:51:31.697Z,11.70
2019-01-03T02:52:31.731Z,10.50
2019-01-03T02:53:31.764Z,8.70
2019-01-03T02:54:31.796Z,9.90
2019-01-03T02:55:31.829Z,9.50
2019-01-03T02:56:31.863Z,8.40
2019-01-03T02:57:31.895Z,10.60
2019-01-03T02:58:31.928Z,11.70
2019-01-03T02:59:31.966Z,9.60
2019-01-03T03:00:31.995Z,9.50
2019-01-03T03:01:32.028Z,8.90
2019-01-03T03:02:32.064Z,9.40
2019-01-03T03:03:32.104Z,8.60
2019-01-03T03:04:32.127Z,9.70
2019-01-03T03:05:32.160Z,8.60
2019-01-03T03:06:32.192Z,8.90
2019-01-03T03:07:32.230Z,7.80
2019-01-03T03:08:32.257Z,8.60
2019-01-03T03:09:32.291Z,7.80
2019-01-03T03:10:32.323Z,6.90
2019-01-03T03:11:32.358Z,9.00
2019-01-03T03:12:32.398Z,12.00
2019-01-03T03:13:32.425Z,11.40
2019-01-03T03:14:32.457Z,11.90
2019-01-03T03:15:32.488Z,10.20
2019-01-03T03:16:32.523Z,11.10
2019-01-03T03:17:32.564Z,14.30
2019-01-03T03:18:32.594Z,11.20
2019-01-03T03:19:32.623Z,13.50
2019-01-03T03:20:32.655Z,10.20
2019-01-03T03:21:32.686Z,11.10
2019-01-03T03:22:32.720Z,12.10
2019-01-03T03:23:32.755Z,12.00
2019-01-03T03:24:32.789Z,15.50
2019-01-03T03:25:32.820Z,12.00
2019-01-03T03:26:32.851Z,12.80
2019-01-03T03:27:32.884Z,13.60
2019-01-03T03:28:32.918Z,10.20
2019-01-03T03:29:32.950Z,11.10
2019-01-03T03:30:32.985Z,13.00
2019-01-03T03:31:33.018Z,11.80
2019-01-03T03:32:33.065Z,9.60
2019-01-03T03:33:33.084Z,9.00
2019-01-03T03:34:33.116Z,10.30
2019-01-03T03:35:33.156Z,9.80
2019-01-03T03:36:33.182Z,10.20
2019-01-03T03:37:33.216Z,9.30
2019-01-03T03:38:33.252Z,8.60
2019-01-03T03:39:33.285Z,10.20
2019-01-03T03:40:33.313Z,9.90
2019-01-03T03:41:33.349Z,10.10
2019-01-03T03:42:33.380Z,8.30
2019-01-03T03:43:33.428Z,8.60
2019-01-03T03:44:33.446Z,9.80
2019-01-03T03:45:33.486Z,10.70
2019-01-03T03:46:33.516Z,8.30
2019-01-03T03:47:33.548Z,7.70
2019-01-03T03:48:33.580Z,8.30
2019-01-03T03:49:33.610Z,8.60
2019-01-03T03:50:33.643Z,6.90
2019-01-03T03:51:33.675Z,8.30
2019-01-03T03:52:33.709Z,8.20
2019-01-03T03:53:33.743Z,9.90
2019-01-03T03:54:33.779Z,7.70
2019-01-03T03:55:33.817Z,11.40
2019-01-03T03:56:33.843Z,10.40
2019-01-03T03:57:33.876Z,10.30
2019-01-03T03:58:33.910Z,10.50
2019-01-03T03:59:33.951Z,14.00
2019-01-03T04:00:33.975Z,12.30
2019-01-03T04:01:34.009Z,8.70
2019-01-03T04:02:34.045Z,10.40
2019-01-03T04:03:34.073Z,12.40
2019-01-03T04:04:34.109Z,8.50
2019-01-03T04:05:34.140Z,9.90
2019-01-03T04:06:34.174Z,8.20
2019-01-03T04:07:34.206Z,10.00
2019-01-03T04:08:34.239Z,8.60
2019-01-03T04:09:34.272Z,8.90
2019-01-03T04:10:34.310Z,9.30
2019-01-03T04:11:34.337Z,9.30
2019-01-03T04:12:34.372Z,8.60
2019-01-03T04:13:34.412Z,11.10
2019-01-03T04:14:34.442Z,12.80
2019-01-03T04:15:34.479Z,8.40
2019-01-03T04:16:34.503Z,8.50
2019-01-03T04:17:34.534Z,11.60
2019-01-03T04:18:34.609Z,10.10
2019-01-03T04:19:34.600Z,7.20
2019-01-03T04:20:34.646Z,6.80
2019-01-03T04:21:34.667Z,10.80
2019-01-03T04:22:34.703Z,7.80
2019-01-03T04:23:34.735Z,8.00
2019-01-03T04:24:34.767Z,7.20
2019-01-03T04:25:34.798Z,8.20
2019-01-03T04:26:34.830Z,8.00
2019-01-03T04:27:34.864Z,9.60
2019-01-03T04:28:34.899Z,7.10
2019-01-03T04:29:34.932Z,7.40
2019-01-03T04:30:34.971Z,7.50
2019-01-03T04:31:35.010Z,6.90
2019-01-03T04:32:35.032Z,6.70
2019-01-03T04:33:35.064Z,6.80
2019-01-03T04:34:35.095Z,7.50
2019-01-03T04:35:35.129Z,8.20
2019-01-03T04:36:35.162Z,6.10
2019-01-03T04:37:35.195Z,7.70
2019-01-03T04:38:35.229Z,6.60
2019-01-03T04:39:35.263Z,6.80
2019-01-03T04:40:35.295Z,7.60
2019-01-03T04:41:35.324Z,7.00
2019-01-03T04:42:35.368Z,6.40
2019-01-03T04:43:35.393Z,6.40
2019-01-03T04:44:35.429Z,8.30
2019-01-03T04:45:35.459Z,7.70
2019-01-03T04:46:35.493Z,6.90
2019-01-03T04:47:35.526Z,7.80
2019-01-03T04:48:35.558Z,7.20
2019-01-03T04:49:35.591Z,5.50
2019-01-03T04:50:35.622Z,6.50
2019-01-03T04:51:35.658Z,6.10
2019-01-03T04:52:35.690Z,5.80
2019-01-03T04:53:35.728Z,6.20
2019-01-03T04:54:35.756Z,8.40
2019-01-03T04:55:35.792Z,7.60
2019-01-03T04:56:35.827Z,7.60
2019-01-03T04:57:35.854Z,8.20
2019-01-03T04:58:35.886Z,6.60
2019-01-03T04:59:35.922Z,6.30
2019-01-03T05:00:35.953Z,6.10
2019-01-03T05:01:35.986Z,5.90
2019-01-03T05:02:36.021Z,7.60
2019-01-03T05:03:36.059Z,8.40
2019-01-03T05:04:36.086Z,7.80
2019-01-03T05:05:36.121Z,7.30
2019-01-03T05:06:36.150Z,6.40
2019-01-03T05:07:36.193Z,6.20
2019-01-03T05:08:36.217Z,5.60
2019-01-03T05:09:36.250Z,6.60
2019-01-03T05:10:36.283Z,7.00
2019-01-03T05:11:36.321Z,5.70
2019-01-03T05:12:36.400Z,7.60
2019-01-03T05:13:36.389Z,9.90
2019-01-03T05:14:36.415Z,7.40
2019-01-03T05:15:36.447Z,6.00
2019-01-03T05:16:36.481Z,7.00
2019-01-03T05:17:36.517Z,5.00
2019-01-03T05:18:36.547Z,6.20
2019-01-03T05:19:36.582Z,7.50
2019-01-03T05:20:36.615Z,6.90
2019-01-03T05:21:36.648Z,7.00
2019-01-03T05:22:36.687Z,7.80
2019-01-03T05:23:36.710Z,8.40
2019-01-03T05:24:36.745Z,5.40
2019-01-03T05:25:36.778Z,10.60
2019-01-03T05:26:36.811Z,10.10
2019-01-03T05:27:36.852Z,9.10
2019-01-03T05:28:36.879Z,11.60
2019-01-03T05:29:36.916Z,16.10
2019-01-03T05:30:36.943Z,13.30
2019-01-03T05:31:36.975Z,17.30
2019-01-03T05:32:37.013Z,10.10
2019-01-03T05:33:37.045Z,8.30
2019-01-03T05:34:37.075Z,8.50
2019-01-03T05:35:37.109Z,8.30
2019-01-03T05:36:37.143Z,8.00
2019-01-03T05:37:37.173Z,10.90
2019-01-03T05:38:37.208Z,7.60
2019-01-03T05:39:37.241Z,11.50
2019-01-03T05:40:37.273Z,9.50
2019-01-03T05:41:37.307Z,11.00
2019-01-03T05:42:37.341Z,8.70
2019-01-03T05:43:37.373Z,10.90
2019-01-03T05:44:37.407Z,7.30
2019-01-03T05:45:37.438Z,9.30
2019-01-03T05:46:37.471Z,10.10
2019-01-03T05:47:37.504Z,12.80
2019-01-03T05:48:37.538Z,8.30
2019-01-03T05:49:37.569Z,9.00
2019-01-03T05:50:37.603Z,8.30
2019-01-03T05:51:37.637Z,9.00
2019-01-03T05:52:37.668Z,8.50
2019-01-03T05:53:37.716Z,10.30
2019-01-03T05:54:37.737Z,9.00
2019-01-03T05:55:37.768Z,9.70
2019-01-03T05:56:37.803Z,6.60
2019-01-03T05:57:37.835Z,10.30
2019-01-03T05:58:37.870Z,8.50
2019-01-03T05:59:37.901Z,10.80
2019-01-03T06:00:37.935Z,9.30
2019-01-03T06:01:37.970Z,10.20
2019-01-03T06:02:37.999Z,12.30
2019-01-03T06:03:38.031Z,10.30
2019-01-03T06:04:38.064Z,8.90
2019-01-03T06:05:38.104Z,7.20
2019-01-03T06:06:38.130Z,9.30
2019-01-03T06:07:38.164Z,11.90
2019-01-03T06:08:38.200Z,8.30
2019-01-03T06:09:38.227Z,9.20
2019-01-03T06:10:38.263Z,9.20
2019-01-03T06:11:38.295Z,9.90
2019-01-03T06:12:38.336Z,8.40
2019-01-03T06:13:38.361Z,12.80
2019-01-03T06:14:38.393Z,10.90
2019-01-03T06:15:38.431Z,10.10
2019-01-03T06:16:38.468Z,10.70
2019-01-03T06:17:38.499Z,10.30
2019-01-03T06:18:38.524Z,11.20
2019-01-03T06:19:38.573Z,12.00
2019-01-03T06:20:38.590Z,8.90
2019-01-03T06:21:38.638Z,9.20
2019-01-03T06:22:38.666Z,8.60
2019-01-03T06:23:38.690Z,8.50
2019-01-03T06:24:38.723Z,10.10
2019-01-03T06:25:38.755Z,8.10
2019-01-03T06:26:38.938Z,9.30
2019-01-03T06:27:38.833Z,9.10
2019-01-03T06:28:38.857Z,8.80
2019-01-03T06:29:38.887Z,7.40
2019-01-03T06:30:38.919Z,7.40
2019-01-03T06:31:38.952Z,8.20
2019-01-03T06:32:38.986Z,8.50
2019-01-03T06:33:39.022Z,9.30
2019-01-03T06:34:39.058Z,7.60
2019-01-03T06:35:39.086Z,9.60
2019-01-03T06:36:39.121Z,9.80
2019-01-03T06:37:39.156Z,9.70
2019-01-03T06:38:39.182Z,8.80
2019-01-03T06:39:39.231Z,10.50
2019-01-03T06:40:39.288Z,9.40
2019-01-03T06:41:39.281Z,8.10
2019-01-03T06:42:39.313Z,10.10
2019-01-03T06:43:39.346Z,11.50
2019-01-03T06:44:39.382Z,10.90
2019-01-03T06:45:39.413Z,8.00
2019-01-03T06:46:39.446Z,9.00
2019-01-03T06:47:39.479Z,9.90
2019-01-03T06:48:39.515Z,9.10
2019-01-03T06:49:39.543Z,8.80
2019-01-03T06:50:39.585Z,8.50
2019-01-03T06:51:39.652Z,10.30
2019-01-03T06:52:39.644Z,11.00
2019-01-03T06:53:39.679Z,8.90
2019-01-03T06:54:39.718Z,13.70
2019-01-03T06:55:39.742Z,10.80
2019-01-03T06:56:39.777Z,8.80
2019-01-03T06:57:39.808Z,7.50
2019-01-03T06:58:39.846Z,9.30
2019-01-03T06:59:39.874Z,10.30
2019-01-03T07:00:39.906Z,10.20
2019-01-03T07:01:39.938Z,10.90
2019-01-03T07:02:39.972Z,8.80
2019-01-03T07:03:40.004Z,8.00
2019-01-03T07:04:40.039Z,8.50
2019-01-03T07:05:40.069Z,11.00
2019-01-03T07:06:40.104Z,9.40
2019-01-03T07:07:40.137Z,8.50
2019-01-03T07:08:40.170Z,9.20
2019-01-03T07:09:40.205Z,10.90
2019-01-03T07:10:40.236Z,8.30
2019-01-03T07:11:40.269Z,11.00
2019-01-03T07:12:40.301Z,7.80
2019-01-03T07:13:40.339Z,10.50
2019-01-03T07:14:40.367Z,9.40
2019-01-03T07:15:40.402Z,9.10
2019-01-03T07:16:40.440Z,9.80
2019-01-03T07:17:40.466Z,9.10
2019-01-03T07:18:40.535Z,9.20
2019-01-03T07:19:40.541Z,10.30
2019-01-03T07:20:40.567Z,8.20
2019-01-03T07:21:40.598Z,13.80
2019-01-03T07:22:40.630Z,11.60
2019-01-03T07:23:40.692Z,11.10
2019-01-03T07:24:40.707Z,10.00
2019-01-03T07:25:40.732Z,8.90
2019-01-03T07:26:40.763Z,9.60
2019-01-03T07:27:40.796Z,8.90
2019-01-03T07:28:40.835Z,10.20
2019-01-03T07:29:40.865Z,10.00
2019-01-03T07:30:40.899Z,11.70
2019-01-03T07:31:40.929Z,13.50
2019-01-03T07:32:40.968Z,12.30
2019-01-03T07:33:40.996Z,10.90
2019-01-03T07:34:41.029Z,9.10
2019-01-03T07:35:41.063Z,9.90
2019-01-03T07:36:41.096Z,12.40
2019-01-03T07:37:41.130Z,7.60
2019-01-03T07:38:41.163Z,11.70
2019-01-03T07:39:41.199Z,10.70
2019-01-03T07:40:41.229Z,11.60
2019-01-03T07:41:41.261Z,12.60
2019-01-03T07:42:41.295Z,11.50
2019-01-03T07:43:41.331Z,14.40
2019-01-03T07:44:41.367Z,12.70
2019-01-03T07:45:41.394Z,11.50
2019-01-03T07:46:41.426Z,13.40
2019-01-03T07:47:41.463Z,14.30
2019-01-03T07:48:41.495Z,15.50
2019-01-03T07:49:41.535Z,12.10
2019-01-03T07:50:41.563Z,12.50
2019-01-03T07:51:41.599Z,15.00
2019-01-03T07:52:41.627Z,14.50
2019-01-03T07:53:41.658Z,9.20
2019-01-03T07:54:41.702Z,11.30
2019-01-03T07:55:41.727Z,11.00
2019-01-03T07:56:41.760Z,10.70
2019-01-03T07:57:41.792Z,10.10
2019-01-03T07:58:41.825Z,11.20
2019-01-03T07:59:41.867Z,11.50
2019-01-03T08:00:41.892Z,12.70
2019-01-03T08:01:41.925Z,11.00
2019-01-03T08:02:41.961Z,11.10
2019-01-03T08:03:41.992Z,8.30
2019-01-03T08:04:42.028Z,9.40
2019-01-03T08:05:42.063Z,8.50
2019-01-03T08:06:42.094Z,13.20
2019-01-03T08:07:42.126Z,12.40
2019-01-03T08:08:42.160Z,15.20
2019-01-03T08:09:42.198Z,15.50
2019-01-03T08:10:42.239Z,20.80
2019-01-03T08:11:42.264Z,29.00
2019-01-03T08:12:42.295Z,35.40
2019-01-03T08:13:42.328Z,33.10
2019-01-03T08:14:42.362Z,34.30
2019-01-03T08:15:42.395Z,36.50
2019-01-03T08:16:42.434Z,30.00
2019-01-03T08:17:42.462Z,32.90
2019-01-03T08:18:42.496Z,27.10
2019-01-03T08:19:42.532Z,25.90
2019-01-03T08:20:42.565Z,27.90
2019-01-03T08:21:42.606Z,33.60
2019-01-03T08:22:42.633Z,32.90
2019-01-03T08:23:42.665Z,35.30
2019-01-03T08:24:42.700Z,33.90
2019-01-03T08:25:42.734Z,30.20
2019-01-03T08:26:42.769Z,28.60
2019-01-03T08:27:42.809Z,25.50
2019-01-03T08:28:42.840Z,24.90
2019-01-03T08:29:42.868Z,22.00
2019-01-03T08:30:42.904Z,24.20
2019-01-03T08:31:42.942Z,18.70
2019-01-03T08:32:42.970Z,21.90
2019-01-03T08:33:43.002Z,19.30
2019-01-03T08:34:43.035Z,18.50
2019-01-03T08:35:43.087Z,19.40
2019-01-03T08:36:43.113Z,18.80
2019-01-03T08:37:43.144Z,15.60
2019-01-03T08:38:43.186Z,13.40
2019-01-03T08:39:43.205Z,11.70
2019-01-03T08:40:43.251Z,13.40
2019-01-03T08:41:43.324Z,12.80
2019-01-03T08:42:43.307Z,12.50
2019-01-03T08:43:43.342Z,11.40
2019-01-03T08:44:43.375Z,12.90
2019-01-03T08:45:43.409Z,12.70
2019-01-03T08:46:43.442Z,13.40
2019-01-03T08:47:43.487Z,10.50
2019-01-03T08:48:43.512Z,11.10
2019-01-03T08:49:43.545Z,13.20
2019-01-03T08:50:43.583Z,11.70
2019-01-03T08:51:43.615Z,12.30
2019-01-03T08:52:43.649Z,13.10
2019-01-03T08:53:43.682Z,12.70
2019-01-03T08:54:43.716Z,12.10
2019-01-03T08:55:43.752Z,10.20
2019-01-03T08:56:43.787Z,11.50
2019-01-03T08:57:43.819Z,13.20
2019-01-03T08:58:43.863Z,13.40
2019-01-03T08:59:43.888Z,12.70
2019-01-03T09:00:43.923Z,12.00
2019-01-03T09:01:43.956Z,13.50
2019-01-03T09:02:43.993Z,15.20
2019-01-03T09:03:44.027Z,17.10
2019-01-03T09:04:44.060Z,14.30
2019-01-03T09:05:44.094Z,15.70
2019-01-03T09:06:44.139Z,17.40
2019-01-03T09:07:44.163Z,16.40
2019-01-03T09:08:44.203Z,16.90
2019-01-03T09:09:44.231Z,17.40
2019-01-03T09:10:44.265Z,16.90
2019-01-03T09:11:44.309Z,15.80
2019-01-03T09:12:44.345Z,15.90
2019-01-03T09:13:44.368Z,13.70
2019-01-03T09:14:44.420Z,14.60
2019-01-03T09:15:44.446Z,12.20
2019-01-03T09:16:44.482Z,14.40
2019-01-03T09:17:44.507Z,14.10
2019-01-03T09:18:44.549Z,14.10
2019-01-03T09:19:44.584Z,13.00
2019-01-03T09:20:44.617Z,11.20
2019-01-03T09:21:44.696Z,11.70
2019-01-03T09:22:44.680Z,10.10
2019-01-03T09:23:44.721Z,8.70
2019-01-03T09:24:44.749Z,10.30
2019-01-03T09:25:44.782Z,12.00
2019-01-03T09:26:44.833Z,12.40
2019-01-03T09:27:44.854Z,10.70
2019-01-03T09:28:44.889Z,11.90
2019-01-03T09:29:44.945Z,8.90
2019-01-03T09:30:44.958Z,12.70
2019-01-03T09:31:45.002Z,8.80
2019-01-03T09:32:45.029Z,9.50
2019-01-03T09:33:45.069Z,7.60
2019-01-03T09:34:45.098Z,11.20
2019-01-03T09:35:45.133Z,9.30
2019-01-03T09:36:45.168Z,8.30
2019-01-03T09:37:45.201Z,9.30
2019-01-03T09:38:45.273Z,10.20
2019-01-03T09:39:45.276Z,8.90
2019-01-03T09:40:45.316Z,7.40
2019-01-03T09:41:45.341Z,9.00
2019-01-03T09:42:45.375Z,10.40
2019-01-03T09:43:45.410Z,12.20
2019-01-03T09:44:45.447Z,14.50
2019-01-03T09:45:45.479Z,12.30
2019-01-03T09:46:45.516Z,12.00
2019-01-03T09:47:45.551Z,10.90
2019-01-03T09:48:45.602Z,11.30
2019-01-03T09:49:45.619Z,14.30
2019-01-03T09:50:45.654Z,12.30
2019-01-03T09:51:45.689Z,15.90
2019-01-03T09:52:45.730Z,16.80
2019-01-03T09:53:45.759Z,13.60
2019-01-03T09:54:45.794Z,11.40
2019-01-03T09:55:45.833Z,9.70
2019-01-03T09:56:45.867Z,12.60
2019-01-03T09:57:45.907Z,11.10
2019-01-03T09:58:45.935Z,10.90
2019-01-03T09:59:45.978Z,11.30
2019-01-03T10:00:46.005Z,12.10
2019-01-03T10:01:46.040Z,14.30
2019-01-03T10:02:46.094Z,15.30
2019-01-03T10:03:46.117Z,14.00
2019-01-03T10:04:46.143Z,13.00
2019-01-03T10:05:46.180Z,11.20
2019-01-03T10:06:46.215Z,9.30
2019-01-03T10:07:46.257Z,13.60
2019-01-03T10:08:46.293Z,11.80
2019-01-03T10:09:46.318Z,12.30
2019-01-03T10:10:46.356Z,10.50
2019-01-03T10:11:46.390Z,13.00
2019-01-03T10:12:46.450Z,16.20
2019-01-03T10:13:46.459Z,12.40
2019-01-03T10:14:46.495Z,11.00
2019-01-03T10:15:46.530Z,10.70
2019-01-03T10:16:46.567Z,10.30
2019-01-03T10:17:46.598Z,81.90
2019-01-03T10:18:46.635Z,63.10
2019-01-03T10:19:46.670Z,29.40
2019-01-03T10:20:46.706Z,14.30
2019-01-03T10:21:46.742Z,16.50
2019-01-03T10:22:46.779Z,11.60
2019-01-03T10:23:46.813Z,13.00
2019-01-03T10:24:46.844Z,13.30
2019-01-03T10:25:46.889Z,10.80
2019-01-03T10:26:46.914Z,12.10
2019-01-03T10:27:46.951Z,10.30
2019-01-03T10:28:46.987Z,10.80
2019-01-03T10:29:47.025Z,10.90
2019-01-03T10:30:47.055Z,11.80
2019-01-03T10:31:47.090Z,12.80
2019-01-03T10:32:47.148Z,45.40
2019-01-03T10:33:47.160Z,74.50
2019-01-03T10:34:47.225Z,32.30
2019-01-03T10:35:47.239Z,22.60
2019-01-03T10:36:47.269Z,15.50
2019-01-03T10:37:47.309Z,16.00
2019-01-03T10:38:47.336Z,10.70
2019-01-03T10:39:47.378Z,12.70
2019-01-03T10:40:47.410Z,16.90
2019-01-03T10:41:47.461Z,12.70
2019-01-03T10:42:47.478Z,11.70
2019-01-03T10:43:47.513Z,11.10
2019-01-03T10:44:47.558Z,11.10
2019-01-03T10:45:47.585Z,11.90
2019-01-03T10:46:47.628Z,14.80
2019-01-03T10:47:47.654Z,16.40
2019-01-03T10:48:47.689Z,14.90
2019-01-03T10:49:47.725Z,13.60
2019-01-03T10:50:47.784Z,13.10
2019-01-03T10:51:47.792Z,15.90
2019-01-03T10:52:47.829Z,14.40
2019-01-03T10:53:47.864Z,12.00
2019-01-03T10:54:47.912Z,14.60
2019-01-03T10:55:47.950Z,15.30
2019-01-03T10:56:47.969Z,14.60
2019-01-03T10:57:48.006Z,13.70
2019-01-03T10:58:48.040Z,15.40
2019-01-03T10:59:48.073Z,14.30
2019-01-03T11:00:48.184Z,11.50
2019-01-03T11:01:48.148Z,12.70
2019-01-03T11:02:48.185Z,13.10
2019-01-03T11:03:48.216Z,16.20
2019-01-03T11:04:48.250Z,16.90
2019-01-03T11:05:48.286Z,14.80
2019-01-03T11:06:48.320Z,13.90
2019-01-03T11:07:48.355Z,17.50
2019-01-03T11:08:48.399Z,17.30
2019-01-03T11:09:48.432Z,17.10
2019-01-03T11:10:48.459Z,14.20
2019-01-03T11:11:48.508Z,14.00
2019-01-03T11:12:48.529Z,17.60
2019-01-03T11:13:48.564Z,15.70
2019-01-03T11:14:48.600Z,16.60
2019-01-03T11:15:48.637Z,17.00
2019-01-03T11:16:48.681Z,14.90
2019-01-03T11:17:48.705Z,14.60
2019-01-03T11:18:48.742Z,14.80
2019-01-03T11:19:48.777Z,12.90
2019-01-03T11:20:48.811Z,11.50
2019-01-03T11:21:48.847Z,10.30
2019-01-03T11:22:48.882Z,14.10
2019-01-03T11:23:48.925Z,14.80
2019-01-03T11:24:48.955Z,18.70
2019-01-03T11:25:49.000Z,15.90
2019-01-03T11:26:49.024Z,15.40
2019-01-03T11:27:49.059Z,12.40
2019-01-03T11:28:49.096Z,12.60
2019-01-03T11:29:49.131Z,10.40
2019-01-03T11:30:49.165Z,12.40
2019-01-03T11:31:49.211Z,9.60
2019-01-03T11:32:49.237Z,10.20
2019-01-03T11:33:49.273Z,11.80
2019-01-03T11:34:49.308Z,11.20
2019-01-03T11:35:49.353Z,12.50
2019-01-03T11:36:50.395Z,12.30
2019-01-03T11:37:49.417Z,17.40
2019-01-03T11:38:49.461Z,13.10
2019-01-03T11:39:49.489Z,12.70
2019-01-03T11:40:49.524Z,13.40
2019-01-03T11:41:49.560Z,13.60
2019-01-03T11:42:49.596Z,13.10
2019-01-03T11:43:49.636Z,12.40
2019-01-03T11:44:49.676Z,13.70
2019-01-03T11:45:49.703Z,11.90
2019-01-03T11:46:49.738Z,10.80
2019-01-03T11:47:49.780Z,12.30
2019-01-03T11:48:49.813Z,12.10
2019-01-03T11:49:49.848Z,10.50
2019-01-03T11:50:49.891Z,11.70
2019-01-03T11:51:49.919Z,10.60
2019-01-03T11:52:49.956Z,11.40
2019-01-03T11:53:49.993Z,9.90
2019-01-03T11:54:50.029Z,11.10
2019-01-03T11:55:50.067Z,10.20
2019-01-03T11:56:50.097Z,10.20
2019-01-03T11:57:50.132Z,9.90
2019-01-03T11:58:50.169Z,11.50
2019-01-03T11:59:50.205Z,11.80
2019-01-03T12:00:50.241Z,10.90
2019-01-03T12:01:50.284Z,9.80
2019-01-03T12:02:50.313Z,12.20
2019-01-03T12:03:50.348Z,10.90
2019-01-03T12:04:50.384Z,12.00
2019-01-03T12:05:50.419Z,11.20
2019-01-03T12:06:50.457Z,11.50
2019-01-03T12:07:50.496Z,11.10
2019-01-03T12:08:50.529Z,12.30
2019-01-03T12:09:51.153Z,13.10
2019-01-03T12:10:50.601Z,11.80
2019-01-03T12:11:50.636Z,11.50
2019-01-03T12:12:50.674Z,11.60
2019-01-03T12:13:50.717Z,11.80
2019-01-03T12:14:50.745Z,13.00
2019-01-03T12:15:51.185Z,13.50
2019-01-03T12:16:50.815Z,13.90
2019-01-03T12:17:50.850Z,11.80
2019-01-03T12:18:50.889Z,13.30
2019-01-03T12:19:50.929Z,14.80
2019-01-03T12:20:51.010Z,12.30
2019-01-03T12:21:50.999Z,12.80
2019-01-03T12:22:51.030Z,15.80
2019-01-03T12:23:51.071Z,16.50
2019-01-03T12:24:51.106Z,15.20
2019-01-03T12:25:51.140Z,13.80
2019-01-03T12:26:51.175Z,18.00
2019-01-03T12:27:51.212Z,16.10
2019-01-03T12:28:51.265Z,14.70
2019-01-03T12:29:51.288Z,13.60
2019-01-03T12:30:51.326Z,16.70
2019-01-03T12:31:51.353Z,17.10
2019-01-03T12:32:51.389Z,14.70
2019-01-03T12:33:51.433Z,17.60
2019-01-03T12:34:51.513Z,15.10
2019-01-03T12:35:51.505Z,16.10
2019-01-03T12:36:51.538Z,18.70
2019-01-03T12:37:51.566Z,17.40
2019-01-03T12:38:51.603Z,17.00
2019-01-03T12:39:51.640Z,18.40
2019-01-03T12:40:51.679Z,15.90
2019-01-03T12:41:51.719Z,18.20
2019-01-03T12:42:51.751Z,16.60
2019-01-03T12:43:51.785Z,17.20
2019-01-03T12:44:51.830Z,18.10
2019-01-03T12:45:51.857Z,17.30
2019-01-03T12:46:51.993Z,18.40
2019-01-03T12:47:51.927Z,20.80
2019-01-03T12:48:51.964Z,17.40
2019-01-03T12:49:51.998Z,17.20
2019-01-03T12:50:52.044Z,17.80
2019-01-03T12:51:52.071Z,21.10
2019-01-03T12:52:52.113Z,19.20
2019-01-03T12:53:52.201Z,18.30
2019-01-03T12:54:52.184Z,19.40
2019-01-03T12:55:52.213Z,19.00
2019-01-03T12:56:52.257Z,18.30
2019-01-03T12:57:52.286Z,20.30
2019-01-03T12:58:52.325Z,17.00
2019-01-03T12:59:52.361Z,21.30
2019-01-03T13:00:52.403Z,20.20
2019-01-03T13:01:52.430Z,15.90
2019-01-03T13:02:52.464Z,19.90
2019-01-03T13:03:52.501Z,18.10